Time;durP1;ratioP1;P1;durP2;ratioP2;P2;SDS_P1;SDS_P2;PMS_P1;PMS_P2;Temp;Humidity;BMP_temperature;BMP_pressure;BME280_temperature;BME280_humidity;BME280_pressure;Samples;Min_cycle;Max_cycle;Signal;HPM_P1;HPM_P2
2021/04/06 00:02:27;;;;;;;5.35;2.17;;;;;;;3.62;41.23;100794.28;3579676;40;20114;-75
2021/04/06 00:04:59;;;;;;;6.45;2.00;;;;;;;3.66;41.41;100795.84;3574700;40;20313;-76
2021/04/06 00:07:28;;;;;;;6.28;2.35;;;;;;;3.67;41.01;100792.19;3578847;40;20126;-76
2021/04/06 00:10:00;;;;;;;5.43;2.70;;;;;;;3.70;41.86;100791.97;3566460;40;20041;-75
2021/04/06 00:12:28;;;;;;;5.23;2.27;;;;;;;3.68;41.06;100793.94;3576865;40;20056;-75
2021/04/06 00:14:58;;;;;;;7.18;2.45;;;;;;;3.73;41.23;100782.81;3575704;40;20279;-75
2021/04/06 00:17:26;;;;;;;6.03;2.38;;;;;;;3.74;41.04;100798.09;3579223;40;20053;-76
2021/04/06 00:19:57;;;;;;;5.00;2.10;;;;;;;3.75;41.61;100779.06;3568428;40;20065;-76
2021/04/06 00:22:29;;;;;;;5.57;2.13;;;;;;;3.78;41.61;100794.28;3578303;40;20059;-75
2021/04/06 00:24:57;;;;;;;5.43;1.92;;;;;;;3.76;40.98;100807.00;3578117;40;20138;-76
2021/04/06 00:27:30;;;;;;;6.13;2.20;;;;;;;3.79;41.72;100815.78;3577528;40;20053;-75
2021/04/06 00:30:04;;;;;;;4.80;1.70;;;;;;;3.81;42.25;100818.41;3575384;40;20294;-76
2021/04/06 00:32:33;;;;;;;3.30;1.33;;;;;;;3.81;41.19;100822.00;3566086;40;20298;-75
2021/04/06 00:35:03;;;;;;;6.28;1.40;;;;;;;3.81;41.28;100810.31;3564702;40;20060;-79
2021/04/06 00:37:32;;;;;;;5.70;1.40;;;;;;;3.84;41.27;100818.25;3575936;40;20049;-76
2021/04/06 00:40:05;;;;;;;5.70;1.45;;;;;;;3.85;41.46;100810.03;3577157;40;20033;-76
2021/04/06 00:42:33;;;;;;;;;;;;;;;3.63;42.70;100823.06;3572749;40;20134;-75
2021/04/06 00:45:04;;;;;;;5.35;1.50;;;;;;;3.81;41.99;100830.13;3569217;40;19949;-76
2021/04/06 00:47:33;;;;;;;3.83;1.20;;;;;;;3.84;41.15;100824.53;3566982;40;20061;-76
2021/04/06 00:50:04;;;;;;;5.63;1.90;;;;;;;3.88;41.74;100825.22;3569626;40;20029;-76
2021/04/06 00:52:34;;;;;;;4.28;1.40;;;;;;;3.86;41.53;100832.56;3570043;40;20060;-76
2021/04/06 00:55:02;;;;;;;6.43;1.35;;;;;;;3.88;40.92;100820.66;3588924;40;20067;-76
2021/04/06 00:57:32;;;;;;;5.22;1.65;;;;;;;3.89;41.60;100811.59;3586761;40;20065;-76
2021/04/06 01:00:13;;;;;;;3.92;1.25;;;;;;;3.92;41.92;100830.38;3581373;40;20056;-76
2021/04/06 01:02:43;;;;;;;5.07;1.30;;;;;;;3.89;41.31;100832.38;3569509;40;20033;-76
2021/04/06 01:05:12;;;;;;;3.53;1.10;;;;;;;3.89;41.20;100830.53;3575224;40;20052;-75
2021/04/06 01:07:41;;;;;;;5.20;1.40;;;;;;;3.92;41.33;100834.91;3573879;40;20111;-75
2021/04/06 01:10:09;;;;;;;4.82;1.52;;;;;;;3.91;41.35;100839.44;3576006;40;20040;-75
2021/04/06 01:12:38;;;;;;;2.83;1.15;;;;;;;3.91;41.34;100843.97;3580003;40;20409;-75
2021/04/06 01:15:07;;;;;;;4.30;1.20;;;;;;;3.92;41.09;100853.84;3579577;40;20078;-75
2021/04/06 01:17:38;;;;;;;5.65;1.60;;;;;;;3.94;41.57;100857.34;3579443;40;20400;-75
2021/04/06 01:20:08;;;;;;;6.18;1.40;;;;;;;3.92;41.44;100853.84;3570901;40;20379;-75
2021/04/06 01:22:36;;;;;;;5.53;1.30;;;;;;;3.92;41.62;100854.72;3566218;40;20053;-75
2021/04/06 01:25:06;;;;;;;5.65;1.40;;;;;;;3.93;41.52;100861.00;3574635;40;20127;-75
2021/04/06 01:27:33;;;;;;;5.88;1.20;;;;;;;3.92;41.43;100861.97;3578591;40;20049;-76
2021/04/06 01:30:02;;;;;;;5.40;1.30;;;;;;;3.93;41.15;100861.88;3578545;40;20053;-76
2021/04/06 01:32:30;;;;;;;8.82;1.70;;;;;;;3.93;41.19;100866.41;3579012;40;20072;-81
2021/04/06 01:34:58;;;;;;;2.05;1.00;;;;;;;3.93;41.39;100872.72;3578649;40;20036;-76
2021/04/06 01:37:28;;;;;;;4.18;1.42;;;;;;;3.94;41.40;100876.28;3576252;40;20053;-75
2021/04/06 01:39:58;;;;;;;3.47;1.20;;;;;;;3.94;41.53;100877.16;3573950;40;20045;-77
2021/04/06 01:42:30;;;;;;;4.30;1.17;;;;;;;3.95;41.55;100870.75;3581244;40;20094;-78
2021/04/06 01:45:00;;;;;;;4.63;1.00;;;;;;;3.94;41.18;100871.75;3576620;40;20068;-78
2021/04/06 01:47:28;;;;;;;4.82;1.15;;;;;;;3.94;41.25;100871.75;3581237;40;20048;-77
2021/04/06 01:49:57;;;;;;;3.83;1.30;;;;;;;3.94;41.16;100877.16;3579678;40;20128;-77
2021/04/06 01:52:26;;;;;;;3.45;0.90;;;;;;;3.92;41.07;100870.97;3563843;40;20397;-77
2021/04/06 01:54:59;;;;;;;3.42;1.05;;;;;;;3.92;41.30;100868.25;3563383;40;20055;-77
2021/04/06 01:57:35;;;;;;;2.92;1.15;;;;;;;3.90;41.42;100867.47;3581397;40;20041;-77
2021/04/06 02:00:13;;;;;;;4.18;1.63;;;;;;;3.87;41.74;100874.88;3556696;40;20057;-76
2021/04/06 02:02:43;;;;;;;3.75;1.02;;;;;;;3.86;41.46;100874.03;3567531;40;20052;-77
2021/04/06 02:05:18;;;;;;;2.97;1.10;;;;;;;3.83;41.32;100878.75;3560504;40;20281;-77
2021/04/06 02:07:48;;;;;;;4.25;1.27;;;;;;;3.83;41.06;100874.19;3583073;40;20044;-77
2021/04/06 02:10:16;;;;;;;3.72;1.05;;;;;;;3.82;41.49;100887.81;3582273;40;20040;-77
2021/04/06 02:12:45;;;;;;;3.13;1.00;;;;;;;3.81;41.34;100886.94;3580464;40;20029;-78
2021/04/06 02:15:13;;;;;;;3.17;1.00;;;;;;;3.79;41.50;100888.84;3569794;40;20057;-77
2021/04/06 02:17:48;;;;;;;3.35;1.00;;;;;;;3.80;42.18;100879.78;3568747;40;20029;-78
2021/04/06 02:20:20;;;;;;;3.47;1.10;;;;;;;3.81;42.23;100883.34;3572128;40;20052;-77
2021/04/06 02:22:58;;;;;;;3.72;0.93;;;;;;;3.81;42.54;100876.13;3570770;40;20036;-77
2021/04/06 02:25:26;;;;;;;3.72;1.08;;;;;;;3.79;41.78;100874.44;3579760;40;20045;-78
2021/04/06 02:27:55;;;;;;;6.75;1.65;;;;;;;3.79;41.67;100880.72;3577198;40;20062;-77
2021/04/06 02:30:29;;;;;;;3.35;1.40;;;;;;;3.81;41.74;100886.94;3579533;40;20040;-77
2021/04/06 02:32:58;;;;;;;3.92;1.20;;;;;;;3.80;41.64;100890.59;3579796;40;20053;-77
2021/04/06 02:35:26;;;;;;;5.20;1.30;;;;;;;3.79;42.00;100883.44;3571873;40;20033;-77
2021/04/06 02:37:54;;;;;;;3.92;1.10;;;;;;;3.80;41.90;100889.72;3581294;40;20060;-77
2021/04/06 02:40:25;;;;;;;5.15;1.30;;;;;;;3.77;41.64;100885.38;3574835;40;20293;-77
2021/04/06 02:42:57;;;;;;;3.42;1.30;;;;;;;3.80;42.52;100885.19;3579766;40;20293;-77
2021/04/06 02:45:30;;;;;;;3.38;1.27;;;;;;;3.78;42.54;100879.00;3582055;40;20045;-77
2021/04/06 02:48:03;;;;;;;2.63;1.05;;;;;;;3.76;41.88;100878.22;3579672;40;20056;-77
2021/04/06 02:50:35;;;;;;;4.57;1.23;;;;;;;3.76;41.97;100883.63;3573034;40;20040;-77
2021/04/06 02:53:08;;;;;;;4.30;1.27;;;;;;;3.77;41.89;100889.91;3570177;40;20413;-77
2021/04/06 02:55:39;;;;;;;2.23;1.00;;;;;;;3.74;41.92;100890.09;3575486;40;20053;-77
2021/04/06 02:58:14;;;;;;;3.60;1.10;;;;;;;3.79;42.67;100904.22;3576401;40;20357;-76
2021/04/06 03:00:44;;;;;;;3.55;1.08;;;;;;;3.76;41.83;100908.00;3579078;40;20138;-77
2021/04/06 03:03:22;;;;;;;5.07;1.10;;;;;;;3.79;43.20;100896.97;3571790;40;20040;-77
2021/04/06 03:06:01;;;;;;;3.40;1.10;;;;;;;3.78;42.79;100902.50;3572513;40;20451;-76
2021/04/06 03:08:33;;;;;;;2.95;1.23;;;;;;;3.75;42.00;100898.13;3576717;40;20031;-76
2021/04/06 03:11:12;;;;;;;3.63;0.93;;;;;;;3.78;41.86;100891.66;3577284;40;20469;-77
2021/04/06 03:13:44;;;;;;;6.40;1.25;;;;;;;3.78;42.34;100889.84;3577606;40;20504;-78
2021/04/06 03:16:12;;;;;;;3.95;1.13;;;;;;;3.78;41.89;100897.09;3579093;40;20055;-76
2021/04/06 03:18:42;;;;;;;6.03;1.30;;;;;;;3.77;41.95;100896.22;3569920;40;20337;-76
2021/04/06 03:21:11;;;;;;;4.07;1.15;;;;;;;3.76;42.14;100889.03;3566991;40;20052;-76
2021/04/06 03:23:39;;;;;;;4.22;1.05;;;;;;;3.76;41.96;100894.47;3561496;40;20094;-76
2021/04/06 03:26:07;;;;;;;3.85;1.20;;;;;;;3.76;41.93;100888.19;3577882;40;20033;-76
2021/04/06 03:28:36;;;;;;;2.88;1.20;;;;;;;3.76;42.22;100880.06;3579020;40;20143;-76
2021/04/06 03:31:12;;;;;;;2.85;0.93;;;;;;;3.76;42.87;100880.94;3577756;40;20096;-77
2021/04/06 03:33:41;;;;;;;3.53;1.30;;;;;;;3.75;42.48;100879.19;3580466;40;20095;-76
2021/04/06 03:36:18;;;;;;;3.80;1.20;;;;;;;3.74;41.77;100874.72;3577341;40;20314;-76
2021/04/06 03:38:46;;;;;;;3.63;1.15;;;;;;;3.74;42.27;100868.44;3579593;40;20029;-75
2021/04/06 03:41:13;;;;;;;4.38;0.95;;;;;;;3.74;42.01;100863.91;3561242;40;20057;-75
2021/04/06 03:43:42;;;;;;;6.63;1.40;;;;;;;3.74;42.26;100857.63;3576001;40;20503;-75
2021/04/06 03:46:10;;;;;;;5.25;1.13;;;;;;;3.76;42.05;100862.00;3580927;40;20374;-76
2021/04/06 03:48:39;;;;;;;6.05;1.30;;;;;;;3.75;42.28;100867.47;3578555;40;20429;-76
2021/04/06 03:51:24;;;;;;;3.58;1.30;;;;;;;3.76;42.89;100856.59;3568556;40;20047;-76
2021/04/06 03:53:51;;;;;;;3.90;1.20;;;;;;;3.75;42.30;100862.06;3575375;40;20416;-75
2021/04/06 03:56:19;;;;;;;3.83;1.33;;;;;;;3.75;42.01;100860.25;3576903;40;20321;-76
2021/04/06 03:58:53;;;;;;;4.38;1.50;;;;;;;3.76;42.11;100858.41;3565009;40;20085;-76
2021/04/06 04:01:21;;;;;;;4.65;1.60;;;;;;;3.76;42.32;100859.28;3578847;40;20064;-75
2021/04/06 04:03:52;;;;;;;4.82;1.60;;;;;;;3.77;42.64;100849.34;3578181;40;20040;-75
2021/04/06 04:06:24;;;;;;;4.10;1.73;;;;;;;3.76;42.80;100853.88;3575752;40;20438;-76
2021/04/06 04:08:51;;;;;;;5.18;2.10;;;;;;;3.74;42.34;100863.91;3567140;40;20045;-75
2021/04/06 04:11:20;;;;;;;6.65;2.75;;;;;;;3.74;42.22;100863.03;3575474;40;20049;-75
2021/04/06 04:13:48;;;;;;;7.10;2.70;;;;;;;3.72;42.13;100868.53;3571656;40;20073;-75
2021/04/06 04:16:16;;;;;;;6.38;2.67;;;;;;;3.73;42.13;100869.41;3568073;40;20045;-75
2021/04/06 04:18:45;;;;;;;4.75;2.20;;;;;;;3.72;42.32;100862.25;3577524;40;20060;-75
2021/04/06 04:21:12;;;;;;;4.68;2.40;;;;;;;3.69;42.14;100872.31;3577428;40;20033;-75
2021/04/06 04:23:40;;;;;;;5.78;2.67;;;;;;;3.70;42.32;100875.84;3575893;40;20130;-74
2021/04/06 04:26:08;;;;;;;5.75;2.78;;;;;;;3.68;42.00;100873.25;3572173;40;20110;-76
2021/04/06 04:28:36;;;;;;;5.05;2.00;;;;;;;3.68;42.30;100875.09;3576133;40;20117;-75
2021/04/06 04:31:07;;;;;;;4.78;2.28;;;;;;;3.67;42.49;100876.03;3578110;40;20082;-75
2021/04/06 04:33:34;;;;;;;5.53;2.67;;;;;;;3.67;42.09;100879.63;3576749;40;20386;-75
2021/04/06 04:36:04;;;;;;;5.07;2.92;;;;;;;3.67;42.08;100873.34;3575941;40;20103;-75
2021/04/06 04:38:31;;;;;;;6.18;3.53;;;;;;;3.64;42.33;100874.38;3578537;40;20044;-75
2021/04/06 04:40:59;;;;;;;6.55;2.92;;;;;;;3.65;42.12;100877.97;3576729;40;20057;-75
2021/04/06 04:43:26;;;;;;;6.38;2.78;;;;;;;3.64;42.29;100887.03;3573485;40;20052;-76
2021/04/06 04:45:53;;;;;;;8.85;3.15;;;;;;;3.63;41.86;100896.09;3574720;40;20120;-74
2021/04/06 04:48:21;;;;;;;8.88;3.00;;;;;;;3.62;42.21;100895.22;3562792;40;20052;-74
2021/04/06 04:50:49;;;;;;;5.80;2.60;;;;;;;3.61;42.04;100896.22;3576929;40;20107;-74
2021/04/06 04:53:17;;;;;;;6.05;2.78;;;;;;;3.61;42.23;100907.03;3576824;40;20061;-74
2021/04/06 04:55:44;;;;;;;5.43;2.53;;;;;;;3.59;42.43;100902.63;3578104;40;20036;-75
2021/04/06 04:58:12;;;;;;;6.05;2.53;;;;;;;3.58;41.98;100899.03;3574783;40;20057;-75
2021/04/06 05:00:39;;;;;;;4.60;2.30;;;;;;;3.58;41.94;100899.03;3576304;40;20076;-74
2021/04/06 05:03:07;;;;;;;5.47;2.05;;;;;;;3.58;42.16;100892.75;3576143;40;20049;-75
2021/04/06 05:05:34;;;;;;;5.60;2.10;;;;;;;3.57;42.11;100904.53;3575989;40;20071;-75
2021/04/06 05:08:01;;;;;;;5.65;1.85;;;;;;;3.57;41.94;100899.13;3560164;40;20052;-75
2021/04/06 05:10:30;;;;;;;6.38;2.10;;;;;;;3.56;42.08;100898.25;3575810;40;20054;-75
2021/04/06 05:12:58;;;;;;;4.93;1.70;;;;;;;3.57;42.17;100901.84;3576436;40;20056;-75
2021/04/06 05:15:25;;;;;;;5.57;1.60;;;;;;;3.56;42.10;100905.50;3575314;40;20159;-75
2021/04/06 05:17:52;;;;;;;6.25;1.73;;;;;;;3.56;42.43;100900.09;3576828;40;20398;-75
2021/04/06 05:20:20;;;;;;;4.55;1.80;;;;;;;3.57;42.03;100899.13;3576855;40;20059;-76
2021/04/06 05:22:47;;;;;;;4.60;1.85;;;;;;;3.55;42.30;100898.34;3575026;40;20094;-75
2021/04/06 05:25:14;;;;;;;7.80;1.65;;;;;;;3.54;42.41;100907.41;3575132;40;20053;-74
2021/04/06 05:27:42;;;;;;;6.75;1.48;;;;;;;3.56;42.45;100905.50;3577307;40;20065;-74
2021/04/06 05:30:11;;;;;;;4.60;1.48;;;;;;;3.55;42.25;100899.22;3575981;40;20053;-75
2021/04/06 05:32:39;;;;;;;4.82;1.58;;;;;;;3.54;42.08;100894.75;3577002;40;20081;-73
2021/04/06 05:35:07;;;;;;;6.75;1.58;;;;;;;3.55;42.06;100904.63;3577074;40;20134;-74
2021/04/06 05:37:35;;;;;;;5.60;1.98;;;;;;;3.55;42.04;100901.03;3575829;40;20085;-73
2021/04/06 05:40:03;;;;;;;5.50;2.00;;;;;;;3.54;42.55;100902.88;3576897;40;20061;-74
2021/04/06 05:42:33;;;;;;;5.90;2.00;;;;;;;3.55;42.12;100901.91;3577566;40;20060;-74
2021/04/06 05:45:01;;;;;;;6.90;1.85;;;;;;;3.56;42.22;100903.66;3577042;40;20451;-75
2021/04/06 05:47:35;;;;;;;5.35;1.90;;;;;;;3.56;42.58;100910.91;3565644;40;20060;-74
2021/04/06 05:50:05;;;;;;;6.68;1.85;;;;;;;3.56;42.24;100910.91;3579060;40;20313;-74
2021/04/06 05:52:34;;;;;;;4.95;1.65;;;;;;;3.55;42.55;100917.25;3568775;40;20390;-75
2021/04/06 05:55:04;;;;;;;6.88;1.58;;;;;;;3.55;42.31;100910.03;3570315;40;20429;-74
2021/04/06 05:57:34;;;;;;;5.05;2.03;;;;;;;3.55;42.25;100918.13;3577246;40;20048;-75
2021/04/06 06:00:04;;;;;;;5.90;1.67;;;;;;;3.55;42.76;100918.13;3583839;40;20389;-74
2021/04/06 06:02:31;;;;;;;5.63;1.55;;;;;;;3.54;42.16;100915.50;3578923;40;20360;-75
2021/04/06 06:04:58;;;;;;;6.15;1.60;;;;;;;3.55;42.00;100919.97;3567870;40;20033;-75
2021/04/06 06:07:26;;;;;;;4.80;1.48;;;;;;;3.53;42.34;100920.09;3577168;40;20402;-75
2021/04/06 06:09:54;;;;;;;6.43;1.45;;;;;;;3.55;42.37;100928.09;3576658;40;20048;-75
2021/04/06 06:12:22;;;;;;;5.95;1.27;;;;;;;3.54;42.28;100926.34;3578227;40;20132;-74
2021/04/06 06:14:51;;;;;;;4.82;1.60;;;;;;;3.55;42.37;100925.38;3577868;40;20057;-74
2021/04/06 06:17:21;;;;;;;4.93;1.52;;;;;;;3.54;42.40;100935.31;3566628;40;20127;-75
2021/04/06 06:19:50;;;;;;;6.07;1.58;;;;;;;3.55;42.25;100930.78;3572651;40;20057;-74
2021/04/06 06:22:19;;;;;;;6.97;1.60;;;;;;;3.53;42.33;100935.44;3577229;40;20422;-73
2021/04/06 06:24:48;;;;;;;4.57;1.35;;;;;;;3.53;42.47;100930.03;3574265;40;20052;-73
2021/04/06 06:27:24;;;;;;;4.53;2.20;;;;;;;3.54;42.94;100927.22;3573825;40;20307;-75
2021/04/06 06:29:52;;;;;;;4.70;2.42;;;;;;;3.52;42.69;100937.28;3573023;40;20045;-74
2021/04/06 06:32:22;;;;;;;5.78;2.28;;;;;;;3.53;42.54;100935.44;3576873;40;20061;-74
2021/04/06 06:34:51;;;;;;;5.03;1.70;;;;;;;3.52;42.22;100933.69;3578319;40;20052;-73
2021/04/06 06:37:26;;;;;;;4.43;1.50;;;;;;;3.55;42.93;100942.47;3578483;40;20053;-74
2021/04/06 06:40:14;;;;;;;4.40;1.60;;;;;;;3.51;42.45;100946.34;3578564;40;20034;-74
2021/04/06 06:42:43;;;;;;;3.22;1.30;;;;;;;3.53;42.24;100946.25;3578540;40;20025;-74
2021/04/06 06:45:22;;;;;;;4.65;1.40;;;;;;;3.55;43.10;100942.47;3579042;40;20060;-73
2021/04/06 06:47:55;;;;;;;2.42;1.08;;;;;;;3.57;43.16;100945.09;3569449;40;20133;-73
2021/04/06 06:50:24;;;;;;;6.32;1.95;;;;;;;3.54;42.49;100943.44;3578265;40;20510;-73
2021/04/06 06:52:53;;;;;;;4.07;1.20;;;;;;;3.58;42.74;100952.28;3579453;40;20049;-73
2021/04/06 06:55:23;;;;;;;3.72;1.25;;;;;;;3.57;42.68;100937.88;3580679;40;20635;-74
2021/04/06 06:58:01;;;;;;;3.25;1.30;;;;;;;3.61;42.94;100936.78;3569798;40;20045;-73
2021/04/06 07:00:29;;;;;;;6.03;1.40;;;;;;;3.60;42.29;100942.25;3573959;40;20041;-74
2021/04/06 07:02:57;;;;;;;5.30;1.67;;;;;;;3.62;42.64;100943.03;3578045;40;20064;-74
2021/04/06 07:05:26;;;;;;;5.15;1.67;;;;;;;3.62;42.97;100940.34;3568411;40;20085;-74
2021/04/06 07:08:03;;;;;;;3.53;1.25;;;;;;;3.65;43.13;100938.34;3569147;40;20067;-73
2021/04/06 07:10:32;;;;;;;4.38;1.50;;;;;;;3.68;43.08;100934.59;3563653;40;20330;-73
2021/04/06 07:13:09;;;;;;;3.60;1.40;;;;;;;3.73;43.20;100934.34;3578532;40;20053;-74
2021/04/06 07:15:39;;;;;;;5.55;1.42;;;;;;;3.75;43.24;100938.72;3576003;40;20135;-71
2021/04/06 07:18:12;;;;;;;4.38;1.40;;;;;;;3.79;43.16;100936.69;3571795;40;20081;-73
2021/04/06 07:20:41;;;;;;;4.28;1.50;;;;;;;3.81;43.37;100937.47;3578446;40;20345;-74
2021/04/06 07:23:12;;;;;;;4.20;1.35;;;;;;;3.87;43.09;100939.81;3569375;40;20061;-74
2021/04/06 07:25:42;;;;;;;4.68;1.60;;;;;;;3.92;43.22;100933.19;3576438;40;20102;-73
2021/04/06 07:28:10;;;;;;;4.40;1.60;;;;;;;3.95;42.88;100937.53;3569419;40;20078;-73
2021/04/06 07:30:38;;;;;;;4.20;1.80;;;;;;;3.98;42.86;100930.13;3577741;40;20071;-74
2021/04/06 07:33:08;;;;;;;5.40;1.67;;;;;;;4.03;42.72;100935.28;3575082;40;20024;-73
2021/04/06 07:35:38;;;;;;;4.45;1.65;;;;;;;4.04;42.52;100920.78;3580625;40;20056;-74
2021/04/06 07:38:05;;;;;;;4.72;2.00;;;;;;;4.05;42.55;100922.53;3577417;40;20049;-74
2021/04/06 07:40:34;;;;;;;4.70;1.23;;;;;;;4.08;42.37;100928.66;3577079;40;20049;-72
2021/04/06 07:43:05;;;;;;;5.43;1.73;;;;;;;4.11;42.49;100926.72;3569072;40;20084;-73
2021/04/06 07:45:41;;;;;;;5.10;1.85;;;;;;;4.11;42.23;100921.31;3577455;40;20092;-72
2021/04/06 07:48:42;;;;;;;3.28;1.45;;;;;;;4.11;42.68;100929.44;3576576;40;20413;-73
2021/04/06 07:51:19;;;;;;;4.15;1.73;;;;;;;4.12;42.73;100920.31;3577121;40;20092;-72
2021/04/06 07:53:58;;;;;;;3.65;1.38;;;;;;;4.13;42.04;100930.19;3568867;40;20068;-72
2021/04/06 07:56:51;;;;;;;3.83;1.50;;;;;;;4.12;42.49;100932.03;3577485;40;20317;-72
2021/04/06 07:59:50;;;;;;;5.10;1.65;;;;;;;4.12;42.43;100912.22;3579506;40;20037;-72
2021/04/06 08:02:31;;;;;;;3.45;1.17;;;;;;;4.15;43.02;100922.88;3579112;40;20053;-72
2021/04/06 08:05:08;;;;;;;4.25;1.20;;;;;;;4.20;42.74;100918.91;3577109;40;20137;-73
2021/04/06 08:07:36;;;;;;;2.75;1.38;;;;;;;4.23;42.49;100924.16;3575422;40;20056;-72
2021/04/06 08:10:40;;;;;;;5.10;1.33;;;;;;;4.29;42.39;100926.50;3577049;40;20040;-73
2021/04/06 08:13:13;;;;;;;4.45;1.50;;;;;;;4.31;42.34;100921.00;3577270;40;20067;-73
2021/04/06 08:15:40;;;;;;;5.10;1.58;;;;;;;4.35;42.15;100926.16;3575946;40;20100;-74
2021/04/06 08:18:08;;;;;;;4.13;1.23;;;;;;;4.40;42.19;100917.75;3580240;40;20053;-74
2021/04/06 08:20:39;;;;;;;3.72;1.60;;;;;;;4.47;42.24;100924.53;3576840;40;20059;-73
2021/04/06 08:23:09;;;;;;;4.03;1.20;;;;;;;4.49;42.56;100921.75;3580114;40;20060;-74
2021/04/06 08:25:52;;;;;;;2.90;1.15;;;;;;;4.57;42.44;100920.31;3569114;40;20044;-75
2021/04/06 08:28:31;;;;;;;5.63;1.30;;;;;;;4.63;42.46;100924.47;3574827;40;20052;-74
2021/04/06 08:31:27;;;;;;;4.55;1.30;;;;;;;4.69;42.41;100921.38;3579509;40;20057;-73
2021/04/06 08:33:55;;;;;;;4.47;1.58;;;;;;;4.74;42.08;100927.41;3577980;40;20061;-74
2021/04/06 08:36:25;;;;;;;3.85;1.42;;;;;;;4.78;42.16;100928.97;3577749;40;20037;-75
2021/04/06 08:38:53;;;;;;;3.90;1.38;;;;;;;4.81;41.84;100926.94;3578537;40;20090;-80
2021/04/06 08:41:37;;;;;;;5.93;1.50;;;;;;;4.85;41.68;100931.19;3580014;40;20113;-75
2021/04/06 08:44:09;;;;;;;3.17;1.10;;;;;;;4.85;41.35;100924.94;3577729;40;20436;-73
2021/04/06 08:46:48;;;;;;;2.80;1.15;;;;;;;4.89;41.28;100925.59;3576254;40;20052;-74
2021/04/06 08:49:19;;;;;;;4.20;1.38;;;;;;;4.89;41.63;100921.06;3574930;40;20056;-75
2021/04/06 08:51:49;;;;;;;4.15;1.08;;;;;;;4.92;41.40;100925.44;3578005;40;20053;-75
2021/04/06 08:54:19;;;;;;;4.05;1.13;;;;;;;4.95;41.74;100922.50;3577452;40;20052;-74
2021/04/06 08:56:49;;;;;;;4.57;1.25;;;;;;;5.00;41.74;100923.13;3577939;40;20049;-75
2021/04/06 08:59:24;;;;;;;3.70;1.30;;;;;;;5.06;41.81;100929.03;3568374;40;20100;-74
2021/04/06 09:01:56;;;;;;;4.97;1.23;;;;;;;5.14;41.28;100928.53;3571167;40;20534;-74
2021/04/06 09:04:26;;;;;;;6.43;1.38;;;;;;;5.17;41.84;100929.22;3578644;40;20045;-75
2021/04/06 09:06:55;;;;;;;5.72;1.10;;;;;;;5.26;41.34;100913.34;3576065;40;20049;-75
2021/04/06 09:09:25;;;;;;;5.22;1.10;;;;;;;5.32;40.86;100924.66;3577356;40;20063;-74
2021/04/06 09:11:54;;;;;;;3.60;1.17;;;;;;;5.37;40.65;100930.66;3577553;40;20065;-73
2021/04/06 09:14:23;;;;;;;3.45;1.20;;;;;;;5.42;40.79;100922.25;3577828;40;20052;-73
2021/04/06 09:16:52;;;;;;;3.08;1.02;;;;;;;5.45;40.93;100917.47;3578986;40;20068;-72
2021/04/06 09:19:22;;;;;;;3.38;1.00;;;;;;;5.50;40.58;100914.53;3569593;40;20397;-74
2021/04/06 09:21:51;;;;;;;5.28;1.10;;;;;;;5.53;40.61;100909.75;3579624;40;20040;-73
2021/04/06 09:24:20;;;;;;;4.25;1.55;;;;;;;5.59;40.55;100920.22;3560320;40;20052;-73
2021/04/06 09:26:50;;;;;;;3.92;1.20;;;;;;;5.61;40.12;100906.53;3580179;40;20287;-73
2021/04/06 09:29:20;;;;;;;4.05;1.00;;;;;;;5.65;39.76;100909.94;3569344;40;20037;-72
2021/04/06 09:31:50;;;;;;;3.22;0.95;;;;;;;5.69;39.33;100900.63;3567608;40;20302;-72
2021/04/06 09:34:20;;;;;;;4.47;1.17;;;;;;;5.71;39.30;100904.09;3569699;40;20287;-72
2021/04/06 09:36:54;;;;;;;3.97;1.13;;;;;;;5.72;38.38;100895.88;3580533;40;20052;-73
2021/04/06 09:39:24;;;;;;;3.63;1.15;;;;;;;5.72;39.28;100897.72;3569191;40;20092;-72
2021/04/06 09:41:53;;;;;;;2.78;1.05;;;;;;;5.72;39.37;100897.72;3578807;40;20064;-73
2021/04/06 09:44:23;;;;;;;2.30;1.10;;;;;;;5.72;39.20;100893.16;3578771;40;20045;-75
2021/04/06 09:46:53;;;;;;;2.45;1.08;;;;;;;5.74;39.08;100879.50;3577921;40;20064;-74
2021/04/06 09:49:21;;;;;;;2.50;1.00;;;;;;;5.73;39.28;100881.34;3579026;40;20053;-76
2021/04/06 09:52:01;;;;;;;2.17;1.02;;;;;;;5.77;39.34;100879.25;3579446;40;20044;-74
2021/04/06 09:54:31;;;;;;;4.22;1.15;;;;;;;5.79;39.58;100875.50;3576718;40;20317;-75
2021/04/06 09:57:02;;;;;;;3.58;1.00;;;;;;;5.81;39.09;100865.41;3578472;40;20065;-74
2021/04/06 09:59:30;;;;;;;4.55;1.63;;;;;;;5.83;39.22;100873.47;3578029;40;20310;-73
2021/04/06 10:01:59;;;;;;;3.40;1.10;;;;;;;5.86;38.98;100882.25;3578918;40;20138;-73
2021/04/06 10:04:36;;;;;;;4.60;1.17;;;;;;;5.89;38.06;100883.91;3562616;40;20056;-74
2021/04/06 10:07:08;;;;;;;3.92;1.33;;;;;;;5.89;38.39;100898.34;3581691;40;20079;-74
2021/04/06 10:09:38;;;;;;;4.25;1.23;;;;;;;5.89;39.13;100902.91;3581783;40;20380;-74
2021/04/06 10:12:07;;;;;;;3.42;1.17;;;;;;;5.89;39.12;100898.34;3571886;40;20089;-75
2021/04/06 10:14:35;;;;;;;3.33;1.20;;;;;;;5.90;38.80;100907.38;3576009;40;20428;-75
2021/04/06 10:17:07;;;;;;;1.90;0.90;;;;;;;5.89;38.95;100900.19;3580756;40;20422;-76
2021/04/06 10:19:36;;;;;;;;;;;;;;;5.62;39.40;100900.16;3579142;40;20032;-76
2021/04/06 10:22:09;;;;;;;2.95;1.10;;;;;;;5.81;39.21;100888.97;3567108;40;19950;-76
2021/04/06 10:24:41;;;;;;;4.00;1.30;;;;;;;5.79;39.59;100883.63;3579229;40;20441;-75
2021/04/06 10:27:14;;;;;;;1.70;1.00;;;;;;;5.76;39.39;100881.09;3569420;40;20052;-74
2021/04/06 10:29:42;;;;;;;2.83;1.27;;;;;;;5.70;39.39;100875.22;3578265;40;20053;-74
2021/04/06 10:32:22;;;;;;;2.15;1.10;;;;;;;5.68;39.65;100896.19;3578912;40;20318;-74
2021/04/06 10:34:56;;;;;;;2.22;1.00;;;;;;;5.63;39.71;100869.34;3578609;40;20054;-77
2021/04/06 10:37:24;;;;;;;2.03;0.95;;;;;;;5.56;39.42;100868.88;3563798;40;20033;-75
2021/04/06 10:39:54;;;;;;;1.63;0.90;;;;;;;5.53;39.46;100860.03;3571297;40;20060;-78
2021/04/06 10:42:23;;;;;;;3.03;1.00;;;;;;;5.50;39.75;100857.56;3591656;40;20046;-78
2021/04/06 10:44:50;;;;;;;2.47;1.00;;;;;;;5.46;39.66;100859.53;3572566;40;20056;-76
2021/04/06 10:47:37;;;;;;;2.90;1.35;;;;;;;5.46;40.12;100851.41;3578675;40;20110;-74
2021/04/06 10:50:06;;;;;;;2.60;1.20;;;;;;;5.40;39.98;100849.09;3582081;40;20402;-79
2021/04/06 10:52:35;;;;;;;2.95;1.23;;;;;;;5.38;40.16;100837.47;3563105;40;20088;-80
2021/04/06 10:55:06;;;;;;;3.08;1.50;;;;;;;5.35;40.15;100832.22;3582678;40;20049;-80
2021/04/06 10:57:37;;;;;;;2.10;1.17;;;;;;;5.32;40.38;100834.28;3580817;40;21842;-78
2021/04/06 11:00:17;;;;;;;3.40;1.20;;;;;;;5.35;41.25;100836.78;3580710;40;20275;-80
2021/04/06 11:02:45;;;;;;;;;;;;;;;5.11;41.43;100821.13;3580538;40;20383;-80
2021/04/06 11:05:27;;;;;;;2.20;1.00;;;;;;;5.30;40.73;100817.25;3572440;40;19991;-81
2021/04/06 11:07:57;;;;;;;2.17;1.00;;;;;;;5.36;40.59;100808.69;3580135;40;20312;-78
2021/04/06 11:10:26;;;;;;;4.03;1.08;;;;;;;5.37;40.36;100814.03;3569242;40;20045;-77
2021/04/06 11:13:03;;;;;;;2.50;1.00;;;;;;;5.38;40.46;100814.91;3571243;40;20039;-78
2021/04/06 11:15:31;;;;;;;2.33;1.00;;;;;;;5.36;40.15;100820.41;3580354;40;20045;-77
2021/04/06 11:17:59;;;;;;;2.03;1.13;;;;;;;5.37;39.92;100824.00;3571498;40;20073;-77
2021/04/06 11:20:28;;;;;;;2.15;1.00;;;;;;;5.37;40.31;100816.75;3562051;40;20401;-79
2021/04/06 11:22:55;;;;;;;3.45;0.90;;;;;;;5.35;40.40;100815.97;3575109;40;20045;-78
2021/04/06 11:25:23;;;;;;;3.08;1.40;;;;;;;5.33;40.73;100807.06;3578450;40;20057;-78
2021/04/06 11:27:53;;;;;;;2.67;1.00;;;;;;;5.38;40.76;100806.75;3570732;40;20026;-76
2021/04/06 11:30:22;;;;;;;2.95;0.93;;;;;;;5.40;41.15;100804.81;3571794;40;20041;-79
2021/04/06 11:32:53;;;;;;;4.80;1.38;;;;;;;5.41;41.26;100803.84;3570814;40;20043;-78
2021/04/06 11:35:21;;;;;;;3.35;1.00;;;;;;;5.48;41.27;100808.81;3580371;40;20040;-80
2021/04/06 11:37:48;;;;;;;3.05;1.10;;;;;;;5.51;41.25;100803.16;3585802;40;20025;-76
2021/04/06 11:40:16;;;;;;;2.88;0.90;;;;;;;5.54;40.52;100804.81;3579022;40;20051;-75
2021/04/06 11:42:45;;;;;;;1.67;0.60;;;;;;;5.57;40.06;100800.06;3581967;40;20045;-74
2021/04/06 11:45:14;;;;;;;1.38;0.73;;;;;;;5.59;40.05;100808.94;3574778;40;20049;-74
2021/04/06 11:47:42;;;;;;;1.23;0.57;;;;;;;5.61;40.13;100811.56;3578454;40;20056;-74
2021/04/06 11:50:10;;;;;;;1.98;0.68;;;;;;;5.57;40.00;100808.19;3578564;40;20082;-75
2021/04/06 11:52:37;;;;;;;2.20;0.70;;;;;;;5.54;39.96;100813.81;3579127;40;20071;-76